Time;durP1;ratioP1;P1;durP2;ratioP2;P2;SDS_P1;SDS_P2;PMS_P1;PMS_P2;Temp;Humidity;BMP_temperature;BMP_pressure;BME280_temperature;BME280_humidity;BME280_pressure;Samples;Min_cycle;Max_cycle;Signal;HPM_P1;HPM_P2
2022/11/19 00:01:09;;;;;;;3.53;2.58;;;19.00;40.00;;;;;;5056925;28;20092;-58
2022/11/19 00:03:36;;;;;;;3.35;2.53;;;19.00;39.90;;;;;;5056082;28;20360;-58
2022/11/19 00:06:09;;;;;;;4.05;2.50;;;19.00;39.90;;;;;;5056169;28;20364;-58
2022/11/19 00:08:35;;;;;;;4.97;2.58;;;19.00;39.90;;;;;;5038518;28;20029;-56
2022/11/19 00:11:09;;;;;;;3.13;2.58;;;19.00;39.90;;;;;;5038590;28;20170;-58
2022/11/19 00:13:35;;;;;;;4.05;2.63;;;19.00;39.80;;;;;;5056305;28;20021;-56
2022/11/19 00:16:03;;;;;;;2.88;2.58;;;18.90;39.70;;;;;;5055852;28;20356;-58
2022/11/19 00:18:29;;;;;;;4.07;2.70;;;18.90;39.70;;;;;;5055882;28;20195;-59
2022/11/19 00:20:55;;;;;;;3.38;2.75;;;18.90;39.70;;;;;;5055545;28;20048;-57
2022/11/19 00:23:22;;;;;;;4.13;2.63;;;18.90;39.70;;;;;;5055763;28;20040;-54
2022/11/19 00:25:48;;;;;;;3.42;2.50;;;18.90;39.70;;;;;;5056129;28;20124;-55
2022/11/19 00:28:13;;;;;;;3.45;2.50;;;18.90;39.60;;;;;;5055470;28;20399;-56
2022/11/19 00:30:39;;;;;;;3.03;2.33;;;18.90;39.60;;;;;;5055914;28;20033;-58
2022/11/19 00:33:05;;;;;;;3.88;2.60;;;18.90;39.60;;;;;;5055757;28;20415;-55
2022/11/19 00:35:31;;;;;;;4.30;2.78;;;18.90;39.60;;;;;;5056204;28;20029;-55
2022/11/19 00:37:57;;;;;;;3.47;2.60;;;18.90;39.60;;;;;;5055628;28;20052;-57
2022/11/19 00:40:23;;;;;;;3.08;2.35;;;18.90;39.50;;;;;;5055603;28;20451;-57
2022/11/19 00:43:45;;;;;;;3.22;2.35;;;18.90;39.50;;;;;;5055828;28;20057;-55
2022/11/19 00:45:34;;;;;;;4.05;2.70;;;18.90;39.50;;;;;;5055247;28;20040;-56
2022/11/19 00:48:00;;;;;;;2.83;2.30;;;18.90;39.50;;;;;;5055463;28;20029;-57
2022/11/19 00:50:26;;;;;;;2.70;2.20;;;18.90;39.50;;;;;;5055354;28;20029;-58
2022/11/19 00:52:51;;;;;;;3.30;2.58;;;18.90;39.40;;;;;;5055137;28;20037;-56
2022/11/19 00:55:17;;;;;;;3.10;2.55;;;18.90;39.30;;;;;;5055080;28;20031;-60
2022/11/19 00:57:43;;;;;;;3.08;2.28;;;18.90;39.30;;;;;;5055650;28;20410;-59
2022/11/19 01:00:09;;;;;;;2.85;2.33;;;18.90;39.30;;;;;;5055446;28;20033;-59
2022/11/19 01:02:35;;;;;;;3.03;2.42;;;18.90;39.30;;;;;;5055360;28;20061;-58
2022/11/19 01:05:01;;;;;;;3.28;2.47;;;18.90;39.30;;;;;;5055174;28;20110;-59
2022/11/19 01:07:27;;;;;;;2.50;2.30;;;18.90;39.20;;;;;;5037509;28;20468;-59
2022/11/19 01:09:52;;;;;;;2.60;2.40;;;18.90;39.20;;;;;;5037456;28;20036;-58
2022/11/19 01:12:18;;;;;;;3.40;2.78;;;18.90;39.20;;;;;;5055157;28;20036;-59
2022/11/19 01:14:44;;;;;;;2.70;2.25;;;18.90;39.20;;;;;;5055003;28;20029;-59
2022/11/19 01:17:10;;;;;;;2.95;2.20;;;18.90;39.20;;;;;;5054505;28;20066;-58
2022/11/19 01:19:35;;;;;;;3.35;2.53;;;18.90;39.10;;;;;;5055148;28;20440;-57
2022/11/19 01:22:01;;;;;;;3.00;2.53;;;18.90;39.10;;;;;;5055116;28;20398;-58
2022/11/19 01:24:27;;;;;;;2.38;2.17;;;18.90;39.10;;;;;;5055200;28;20036;-55
2022/11/19 01:26:53;;;;;;;2.58;2.20;;;18.90;39.00;;;;;;5037416;28;20028;-57
2022/11/19 01:29:18;;;;;;;2.83;2.33;;;18.80;39.00;;;;;;5054200;28;20116;-59
2022/11/19 01:31:44;;;;;;;3.42;2.50;;;18.90;39.00;;;;;;5020603;28;20460;-58
2022/11/19 01:34:10;;;;;;;3.58;2.70;;;18.90;39.00;;;;;;5055278;28;20037;-60
2022/11/19 01:36:36;;;;;;;3.75;2.70;;;18.80;38.90;;;;;;5055217;28;20143;-57
2022/11/19 01:39:02;;;;;;;3.08;2.55;;;18.80;38.90;;;;;;5055158;28;20044;-58
2022/11/19 01:41:31;;;;;;;3.25;2.40;;;18.80;38.90;;;;;;5037257;28;20033;-58
2022/11/19 01:44:00;;;;;;;2.60;2.40;;;18.80;38.80;;;;;;5036814;28;20037;-59
2022/11/19 01:46:29;;;;;;;2.65;2.30;;;18.80;38.80;;;;;;5036916;28;20065;-58
2022/11/19 01:49:17;;;;;;;3.00;2.30;;;18.80;38.80;;;;;;5036728;28;20116;-55
2022/11/19 01:52:04;;;;;;;2.58;2.35;;;18.80;38.70;;;;;;5037619;28;20122;-58
2022/11/19 01:54:39;;;;;;;3.25;2.67;;;18.80;38.70;;;;;;5037308;28;20033;-59
2022/11/19 01:57:09;;;;;;;3.58;2.70;;;18.80;38.70;;;;;;5054904;28;20053;-60
2022/11/19 01:59:36;;;;;;;2.78;2.38;;;18.80;38.60;;;;;;5054614;28;20111;-59
2022/11/19 02:02:02;;;;;;;2.88;2.58;;;18.80;38.60;;;;;;5054595;28;20047;-58
2022/11/19 02:04:28;;;;;;;3.00;2.70;;;18.80;39.20;;;;;;5054926;28;20041;-59
2022/11/19 02:06:54;;;;;;;3.38;2.70;;;18.80;38.50;;;;;;5037017;28;20033;-61
2022/11/19 02:09:21;;;;;;;3.25;2.50;;;18.80;38.50;;;;;;5036900;28;20037;-57
2022/11/19 02:12:12;;;;;;;3.08;2.60;;;18.80;38.50;;;;;;5054590;28;20029;-61
2022/11/19 02:14:47;;;;;;;3.45;2.72;;;18.80;38.40;;;;;;5054618;28;20033;-58
2022/11/19 02:17:12;;;;;;;;;;;18.80;38.40;;;;;;5036958;28;20048;-59
2022/11/19 02:20:15;;;;;;;3.22;2.72;;;18.80;38.40;;;;;;5036557;28;19919;-62
2022/11/19 02:22:53;;;;;;;3.47;2.83;;;18.80;38.40;;;;;;5036888;28;20464;-60
2022/11/19 02:25:37;;;;;;;3.38;3.08;;;18.80;38.30;;;;;;5054295;28;20112;-58
2022/11/19 02:28:30;;;;;;;3.63;3.08;;;18.80;38.30;;;;;;5036918;28;20095;-54
2022/11/19 02:31:13;;;;;;;3.88;3.10;;;18.80;38.20;;;;;;5054596;28;20033;-57
2022/11/19 02:33:49;;;;;;;3.75;3.17;;;18.70;38.20;;;;;;5054471;28;20359;-59
2022/11/19 02:36:28;;;;;;;3.53;3.00;;;18.70;38.10;;;;;;5036512;28;20098;-60
2022/11/19 02:39:12;;;;;;;3.72;3.25;;;18.70;38.10;;;;;;5054810;28;20029;-56
2022/11/19 02:41:52;;;;;;;4.22;3.10;;;18.70;38.10;;;;;;5056919;28;20359;-58
2022/11/19 02:47:23;;;;;;;4.05;3.42;;;18.70;38.10;;;;;;5057857;28;20463;-58
2022/11/19 02:49:52;;;;;;;3.53;2.92;;;18.70;38.10;;;;;;5057739;28;20421;-61
2022/11/19 02:52:19;;;;;;;3.70;3.17;;;18.70;38.10;;;;;;5057892;28;20033;-58
2022/11/19 02:54:45;;;;;;;4.65;3.90;;;18.70;38.10;;;;;;5057358;28;20514;-59
2022/11/19 02:57:12;;;;;;;3.65;3.13;;;18.70;38.00;;;;;;5040059;28;20036;-58
2022/11/19 03:05:38;;;;;;;4.10;3.33;;;18.70;37.90;;;;;;5057114;28;20112;-57
2022/11/19 03:08:04;;;;;;;3.72;3.28;;;18.70;37.90;;;;;;5057475;28;20033;-58
2022/11/19 03:10:54;;;;;;;4.47;3.63;;;18.70;37.80;;;;;;5057259;28;20079;-54
2022/11/19 03:19:36;;;;;;;4.57;3.88;;;18.70;37.70;;;;;;5057477;28;20032;-54
2022/11/19 03:22:17;;;;;;;4.22;3.75;;;18.70;37.70;;;;;;5029447;28;20073;-55
2022/11/19 03:24:59;;;;;;;3.47;3.17;;;18.60;37.60;;;;;;5057465;28;20072;-57
2022/11/19 03:27:30;;;;;;;4.82;3.80;;;18.70;37.70;;;;;;5022648;28;20033;-58
2022/11/19 03:29:59;;;;;;;4.63;3.90;;;18.70;37.70;;;;;;5056970;28;20033;-60
2022/11/19 03:32:31;;;;;;;3.83;3.42;;;18.70;37.70;;;;;;5057918;28;20079;-61
2022/11/19 03:35:03;;;;;;;3.83;3.42;;;18.70;37.60;;;;;;5056795;28;20112;-56
2022/11/19 03:37:30;;;;;;;4.25;3.58;;;18.70;37.60;;;;;;5038985;28;20021;-59
2022/11/19 03:39:59;;;;;;;4.53;3.85;;;18.70;37.60;;;;;;5056757;28;20436;-57
2022/11/19 03:42:25;;;;;;;4.30;3.53;;;18.70;37.50;;;;;;5056751;28;20068;-56
2022/11/19 03:44:58;;;;;;;3.80;3.40;;;18.60;37.50;;;;;;5039289;28;20087;-58
2022/11/19 03:47:30;;;;;;;3.90;3.50;;;18.60;38.10;;;;;;5038966;28;20035;-56
2022/11/19 03:50:18;;;;;;;4.72;3.85;;;18.70;37.50;;;;;;5039005;28;20183;-56
2022/11/19 03:52:44;;;;;;;4.82;3.70;;;18.70;37.50;;;;;;5037124;28;20063;-58
2022/11/19 03:55:10;;;;;;;4.55;3.65;;;18.70;37.40;;;;;;5057154;28;20437;-59
2022/11/19 03:57:36;;;;;;;4.50;3.30;;;18.60;37.40;;;;;;5039089;28;20104;-60
2022/11/19 04:00:04;;;;;;;4.55;3.72;;;18.70;37.40;;;;;;5056369;28;20052;-58
2022/11/19 04:02:39;;;;;;;5.00;4.13;;;18.70;37.40;;;;;;5056289;28;20436;-59
2022/11/19 04:05:05;;;;;;;4.93;4.07;;;18.60;37.30;;;;;;5056525;28;20037;-56
2022/11/19 04:07:30;;;;;;;4.15;3.53;;;18.70;37.30;;;;;;5039121;28;20033;-58
2022/11/19 04:09:56;;;;;;;4.75;3.88;;;18.70;37.30;;;;;;5038539;28;20043;-59
2022/11/19 04:12:24;;;;;;;4.15;3.53;;;18.60;37.20;;;;;;5056134;28;20075;-59
2022/11/19 04:14:50;;;;;;;4.00;3.60;;;18.60;37.20;;;;;;5055935;28;20021;-58
2022/11/19 04:17:18;;;;;;;4.22;3.80;;;18.60;37.20;;;;;;5038373;28;20060;-57
2022/11/19 04:19:44;;;;;;;3.92;3.53;;;18.60;37.20;;;;;;5056349;28;20029;-58
2022/11/19 04:22:10;;;;;;;5.35;3.78;;;18.60;37.20;;;;;;5056314;28;20040;-59
2022/11/19 04:24:36;;;;;;;5.18;4.10;;;18.60;37.10;;;;;;5038678;28;20044;-57
2022/11/19 04:27:04;;;;;;;5.15;3.95;;;18.60;37.10;;;;;;5056035;28;20085;-60
2022/11/19 04:29:29;;;;;;;5.05;4.32;;;18.60;37.10;;;;;;5055667;28;20033;-58
2022/11/19 04:31:55;;;;;;;5.00;4.03;;;18.60;37.10;;;;;;5055672;28;20112;-59
2022/11/19 04:34:21;;;;;;;5.15;4.30;;;18.60;37.10;;;;;;5056097;28;20025;-59
2022/11/19 04:36:47;;;;;;;5.15;4.30;;;18.60;37.10;;;;;;5055598;28;20048;-57
2022/11/19 04:39:12;;;;;;;5.53;4.10;;;18.60;37.10;;;;;;5055634;28;20037;-57
2022/11/19 04:41:39;;;;;;;4.50;4.07;;;18.50;37.00;;;;;;5038249;28;20114;-56
2022/11/19 04:44:06;;;;;;;4.45;3.78;;;18.60;37.10;;;;;;5055578;28;20598;-56
2022/11/19 04:46:32;;;;;;;4.93;4.25;;;18.50;37.00;;;;;;5038030;28;20467;-59
2022/11/19 04:48:58;;;;;;;4.50;3.70;;;18.60;37.10;;;;;;5055747;28;20033;-58
2022/11/19 04:51:24;;;;;;;4.78;3.83;;;18.50;37.00;;;;;;5055868;28;20037;-58
2022/11/19 04:53:50;;;;;;;4.55;4.07;;;18.50;37.00;;;;;;5038229;28;20041;-58
2022/11/19 04:56:16;;;;;;;4.43;3.90;;;18.60;37.00;;;;;;5055066;28;20016;-58
2022/11/19 04:58:41;;;;;;;4.63;4.13;;;18.60;37.00;;;;;;5038025;28;20039;-60
2022/11/19 05:01:07;;;;;;;5.35;4.47;;;18.60;37.00;;;;;;5055179;28;20025;-56
2022/11/19 05:03:33;;;;;;;5.18;4.40;;;18.60;37.00;;;;;;5054647;28;20379;-55
2022/11/19 05:05:59;;;;;;;5.10;4.32;;;18.50;36.90;;;;;;5054914;28;20093;-59
2022/11/19 05:08:25;;;;;;;4.20;3.80;;;18.60;37.00;;;;;;5055308;28;20028;-56
2022/11/19 05:10:51;;;;;;;4.53;4.07;;;18.50;36.90;;;;;;5055153;28;20037;-56
2022/11/19 05:13:17;;;;;;;4.90;4.40;;;18.50;36.80;;;;;;5055041;28;20040;-59
2022/11/19 05:15:43;;;;;;;5.18;3.88;;;18.50;36.80;;;;;;5020913;28;20029;-58
2022/11/19 05:18:09;;;;;;;5.72;4.20;;;18.50;37.50;;;;;;5037058;28;20037;-58
2022/11/19 05:20:35;;;;;;;5.40;4.70;;;18.50;36.80;;;;;;5020976;28;20139;-60
2022/11/19 05:23:00;;;;;;;5.18;3.90;;;18.50;36.80;;;;;;5054804;28;20029;-59
2022/11/19 05:25:26;;;;;;;5.43;4.65;;;18.50;36.80;;;;;;5054577;28;20453;-60
2022/11/19 05:27:52;;;;;;;5.65;4.28;;;18.50;36.80;;;;;;5054790;28;20033;-60
2022/11/19 05:30:18;;;;;;;4.53;3.90;;;18.50;36.70;;;;;;5055383;28;20045;-57
2022/11/19 05:32:44;;;;;;;5.78;4.20;;;18.50;36.80;;;;;;5036897;28;20029;-58
2022/11/19 05:35:09;;;;;;;5.28;4.38;;;18.50;36.70;;;;;;5054440;28;20032;-56
2022/11/19 05:37:35;;;;;;;5.20;4.28;;;18.50;36.70;;;;;;5054812;28;20429;-57
2022/11/19 05:40:01;;;;;;;5.05;4.35;;;18.50;36.70;;;;;;5054242;28;20041;-58
2022/11/19 05:42:27;;;;;;;5.63;4.30;;;18.50;36.70;;;;;;5054700;28;20025;-59
2022/11/19 05:44:53;;;;;;;4.57;4.07;;;18.50;36.70;;;;;;5054787;28;20437;-58
2022/11/19 05:47:19;;;;;;;4.57;4.10;;;18.50;36.60;;;;;;5054438;28;20037;-58
2022/11/19 05:49:44;;;;;;;5.65;4.20;;;18.50;36.60;;;;;;5037053;28;20086;-58
2022/11/19 05:52:10;;;;;;;5.38;4.53;;;18.50;36.60;;;;;;5054180;28;20048;-59
2022/11/19 05:54:36;;;;;;;5.93;4.30;;;18.50;36.50;;;;;;5037140;28;20033;-57
2022/11/19 05:57:03;;;;;;;5.32;4.35;;;18.50;36.50;;;;;;5037159;28;20032;-59
2022/11/19 05:59:29;;;;;;;4.93;4.15;;;18.50;36.50;;;;;;5021109;28;20029;-59
2022/11/19 06:01:54;;;;;;;4.68;4.00;;;18.50;36.50;;;;;;5054524;28;20039;-58
2022/11/19 06:04:20;;;;;;;4.60;3.80;;;18.50;36.50;;;;;;5037180;28;20041;-60
2022/11/19 06:06:46;;;;;;;4.82;4.03;;;18.40;36.40;;;;;;5054989;28;20409;-58
2022/11/19 06:09:12;;;;;;;6.13;4.05;;;18.50;36.40;;;;;;5020699;28;20029;-60
2022/11/19 06:11:47;;;;;;;4.55;3.78;;;18.50;36.40;;;;;;5054162;28;20090;-59
2022/11/19 06:14:23;;;;;;;5.15;3.95;;;18.40;36.40;;;;;;5054714;28;20037;-55
2022/11/19 06:16:50;;;;;;;4.80;4.25;;;18.40;36.40;;;;;;5023127;28;20045;-55
2022/11/19 06:19:17;;;;;;;5.22;4.22;;;18.40;36.40;;;;;;5058199;28;20074;-58
2022/11/19 06:21:43;;;;;;;4.78;4.28;;;18.40;36.30;;;;;;5057975;28;20024;-59
2022/11/19 06:24:09;;;;;;;4.68;4.13;;;18.40;36.30;;;;;;5058240;28;20341;-59
2022/11/19 06:26:35;;;;;;;4.45;4.03;;;18.40;36.30;;;;;;5058175;28;20123;-59
2022/11/19 06:29:01;;;;;;;4.97;4.20;;;18.40;36.30;;;;;;5058214;28;20029;-58
2022/11/19 06:31:27;;;;;;;5.80;4.20;;;18.40;36.30;;;;;;5058246;28;20448;-55
2022/11/19 06:33:53;;;;;;;4.85;4.30;;;18.40;36.30;;;;;;5058058;28;20064;-60
2022/11/19 06:36:20;;;;;;;5.07;4.50;;;18.40;36.30;;;;;;5040396;28;20067;-57
2022/11/19 06:38:45;;;;;;;5.30;4.38;;;18.40;36.30;;;;;;5057790;28;20025;-60
2022/11/19 06:41:11;;;;;;;4.80;3.90;;;18.40;36.20;;;;;;5040133;28;20325;-59
2022/11/19 06:43:37;;;;;;;5.05;4.15;;;18.40;36.20;;;;;;5057907;28;20503;-59
2022/11/19 06:46:03;;;;;;;5.10;4.32;;;18.40;36.20;;;;;;5057588;28;20025;-59
2022/11/19 06:48:29;;;;;;;4.43;4.00;;;18.40;36.20;;;;;;5040299;28;20065;-59
2022/11/19 06:50:55;;;;;;;5.15;4.30;;;18.40;36.10;;;;;;5057598;28;20095;-60
2022/11/19 06:53:21;;;;;;;5.18;4.07;;;18.40;36.10;;;;;;5039801;28;20123;-60
2022/11/19 06:55:47;;;;;;;4.93;4.43;;;18.40;36.10;;;;;;5057540;28;20055;-61
2022/11/19 06:58:14;;;;;;;4.57;3.90;;;18.40;36.10;;;;;;5040142;28;20111;-56
2022/11/19 07:00:40;;;;;;;5.30;4.15;;;18.40;36.10;;;;;;5039775;28;20025;-58
2022/11/19 07:03:06;;;;;;;5.28;4.65;;;18.40;36.10;;;;;;5057438;28;20035;-59
2022/11/19 07:05:32;;;;;;;5.10;4.47;;;18.40;36.10;;;;;;5057540;28;20052;-59
2022/11/19 07:07:58;;;;;;;5.35;4.43;;;18.40;36.00;;;;;;5057290;28;20029;-60
2022/11/19 07:10:23;;;;;;;5.65;4.07;;;18.40;36.00;;;;;;5039934;28;20029;-56
2022/11/19 07:12:49;;;;;;;5.38;4.30;;;18.40;36.00;;;;;;5057676;28;20195;-59
2022/11/19 07:15:15;;;;;;;5.20;4.30;;;18.40;36.00;;;;;;5057443;28;20127;-58
2022/11/19 07:17:41;;;;;;;5.82;4.35;;;18.40;35.90;;;;;;5019645;28;20045;-55
2022/11/19 07:20:08;;;;;;;4.88;4.22;;;18.40;35.90;;;;;;5037039;28;20029;-60
2022/11/19 07:22:34;;;;;;;4.97;4.30;;;18.30;35.90;;;;;;5037498;28;20029;-60
2022/11/19 07:24:59;;;;;;;4.85;4.10;;;18.40;35.90;;;;;;5037277;28;20106;-58
2022/11/19 07:27:25;;;;;;;6.07;5.00;;;18.30;35.90;;;;;;5036189;28;20441;-60
2022/11/19 07:29:51;;;;;;;4.53;3.97;;;18.30;35.80;;;;;;5036158;28;20033;-58
2022/11/19 07:32:17;;;;;;;5.28;4.53;;;18.30;35.80;;;;;;5037564;28;20325;-57
2022/11/19 07:34:43;;;;;;;5.15;4.32;;;18.30;35.70;;;;;;5037769;28;20030;-57
2022/11/19 07:37:09;;;;;;;5.03;4.07;;;18.30;35.70;;;;;;5036666;28;20102;-59
2022/11/19 07:39:34;;;;;;;4.53;4.13;;;18.30;35.70;;;;;;5037041;28;20049;-59
2022/11/19 07:44:51;;;;;;;5.45;4.50;;;18.30;35.70;;;;;;5035710;28;20091;-59
2022/11/19 07:47:16;;;;;;;4.80;4.07;;;18.30;35.60;;;;;;5037166;28;20041;-60
2022/11/19 07:49:42;;;;;;;4.95;4.30;;;18.30;35.60;;;;;;5036566;28;20108;-59
2022/11/19 07:52:08;;;;;;;5.43;4.38;;;18.30;35.60;;;;;;5035649;28;20101;-57
2022/11/19 07:54:34;;;;;;;5.47;4.35;;;18.30;35.60;;;;;;5035557;28;20026;-58
2022/11/19 07:56:59;;;;;;;4.75;4.25;;;18.30;35.60;;;;;;5037050;28;20028;-59
2022/11/19 07:59:25;;;;;;;5.32;4.43;;;18.30;35.60;;;;;;5036267;28;20029;-59
2022/11/19 08:01:51;;;;;;;5.22;3.83;;;18.30;35.60;;;;;;5036689;28;20049;-58
2022/11/19 08:04:17;;;;;;;5.78;4.47;;;18.30;35.50;;;;;;5036068;28;20048;-59
2022/11/19 08:06:43;;;;;;;5.47;4.53;;;18.30;35.50;;;;;;5035423;28;20468;-56
2022/11/19 08:09:09;;;;;;;4.80;4.30;;;18.30;35.50;;;;;;5035458;28;20094;-56
2022/11/19 08:11:35;;;;;;;4.47;3.78;;;18.30;35.40;;;;;;5036591;28;20029;-54
2022/11/19 08:14:00;;;;;;;4.90;4.18;;;18.30;35.40;;;;;;5036399;28;20411;-59
2022/11/19 08:19:14;;;;;;;5.15;4.22;;;18.30;35.30;;;;;;5056150;28;20072;-60
2022/11/19 08:21:42;;;;;;;4.63;4.00;;;18.30;35.30;;;;;;5056380;28;20436;-58
2022/11/19 08:24:09;;;;;;;4.32;3.90;;;18.30;35.30;;;;;;5056012;28;20029;-56
2022/11/19 08:26:35;;;;;;;6.28;4.32;;;18.30;35.30;;;;;;5038096;28;20040;-59
2022/11/19 08:29:01;;;;;;;3.60;3.30;;;18.30;35.20;;;;;;5038844;28;20033;-59
2022/11/19 08:31:27;;;;;;;4.65;4.10;;;18.30;35.20;;;;;;5038220;28;20035;-59
2022/11/19 08:33:53;;;;;;;4.47;4.05;;;18.30;35.10;;;;;;5056368;28;20103;-58
2022/11/19 08:36:19;;;;;;;4.03;3.63;;;18.30;35.10;;;;;;5055688;28;20063;-59
2022/11/19 08:38:44;;;;;;;4.80;3.88;;;18.30;35.10;;;;;;5038090;28;20387;-58
2022/11/19 08:43:55;;;;;;;4.82;3.72;;;18.30;35.00;;;;;;5055574;28;20433;-56
2022/11/19 08:46:20;;;;;;;5.13;3.92;;;18.20;35.00;;;;;;5055834;28;20035;-58
2022/11/19 08:48:46;;;;;;;5.40;4.25;;;18.30;35.00;;;;;;5038486;28;20040;-60
2022/11/19 08:51:13;;;;;;;4.40;3.67;;;18.30;35.00;;;;;;5037975;28;20033;-59
2022/11/19 08:53:40;;;;;;;4.90;3.88;;;18.30;34.90;;;;;;5055654;28;20414;-57
2022/11/19 08:56:06;;;;;;;5.05;4.22;;;18.20;34.80;;;;;;5037678;28;20436;-59
2022/11/19 08:58:32;;;;;;;5.25;3.90;;;18.20;34.80;;;;;;5055754;28;20040;-57
2022/11/19 09:00:58;;;;;;;4.13;3.53;;;18.30;34.80;;;;;;5055312;28;20037;-58
2022/11/19 09:03:24;;;;;;;5.07;3.58;;;18.30;34.80;;;;;;5055179;28;20033;-57
2022/11/19 09:05:58;;;;;;;4.80;3.60;;;18.20;34.70;;;;;;5055367;28;20033;-60
2022/11/19 09:08:24;;;;;;;4.45;3.33;;;18.30;34.70;;;;;;5037739;28;20057;-57
2022/11/19 09:10:50;;;;;;;3.90;3.45;;;18.20;34.60;;;;;;5055173;28;20060;-54
2022/11/19 09:13:16;;;;;;;4.45;3.70;;;18.20;34.70;;;;;;5037717;28;20490;-59
2022/11/19 09:15:41;;;;;;;3.70;3.08;;;18.30;34.60;;;;;;5055158;28;20124;-57
2022/11/19 09:18:07;;;;;;;3.55;3.05;;;18.20;34.60;;;;;;5054875;28;20045;-57
2022/11/19 09:20:34;;;;;;;4.28;3.70;;;18.30;34.60;;;;;;5055295;28;20349;-56
2022/11/19 09:23:00;;;;;;;4.05;3.30;;;18.20;34.50;;;;;;5055056;28;20055;-59
2022/11/19 09:25:26;;;;;;;4.55;3.75;;;18.20;34.50;;;;;;5055392;28;20056;-59
2022/11/19 09:27:52;;;;;;;4.20;3.65;;;18.20;34.50;;;;;;5037181;28;20126;-57
2022/11/19 09:30:17;;;;;;;4.28;3.60;;;18.30;34.50;;;;;;5037587;28;20163;-58
2022/11/19 09:32:43;;;;;;;4.30;3.63;;;18.30;34.50;;;;;;5037314;28;20108;-59
2022/11/19 09:35:09;;;;;;;4.07;3.40;;;18.20;34.40;;;;;;5020517;28;20036;-59
2022/11/19 09:37:35;;;;;;;4.53;3.85;;;18.30;34.50;;;;;;5055030;28;20116;-60
2022/11/19 09:40:01;;;;;;;4.53;3.65;;;18.20;34.40;;;;;;5054900;28;20029;-57
2022/11/19 09:43:05;;;;;;;5.35;3.72;;;18.20;34.30;;;;;;5037544;28;20033;-55
2022/11/19 09:45:47;;;;;;;4.43;3.30;;;18.30;34.30;;;;;;5037044;28;20119;-56
2022/11/19 09:48:21;;;;;;;3.92;3.05;;;18.20;34.30;;;;;;5055093;28;20191;-60
2022/11/19 09:50:58;;;;;;;3.80;3.33;;;18.30;34.30;;;;;;5053453;28;20036;-57
2022/11/19 09:53:30;;;;;;;3.78;3.22;;;18.30;34.30;;;;;;5054474;28;20037;-58
2022/11/19 09:55:58;;;;;;;4.13;3.35;;;18.20;34.20;;;;;;5054127;28;20029;-57
2022/11/19 09:58:33;;;;;;;4.18;3.35;;;18.20;34.20;;;;;;5037199;28;20040;-59
2022/11/19 10:01:00;;;;;;;4.07;3.17;;;18.20;34.20;;;;;;5020369;28;20029;-59
2022/11/19 10:03:26;;;;;;;3.35;2.92;;;18.20;34.20;;;;;;5054763;28;20076;-58
2022/11/19 10:05:52;;;;;;;3.88;3.10;;;18.20;34.10;;;;;;5036656;28;20056;-59
2022/11/19 10:08:39;;;;;;;3.53;3.00;;;18.20;34.10;;;;;;5036633;28;20407;-58
2022/11/19 10:11:31;;;;;;;4.35;3.05;;;18.30;34.10;;;;;;5054620;28;20087;-58
2022/11/19 10:14:15;;;;;;;3.92;2.90;;;18.30;34.10;;;;;;5043625;28;20044;-60
2022/11/19 10:16:58;;;;;;;2.85;2.42;;;18.30;34.00;;;;;;5037110;28;20376;-57
2022/11/19 10:19:35;;;;;;;3.88;2.97;;;18.20;34.00;;;;;;5054193;28;20033;-58
2022/11/19 10:22:15;;;;;;;3.65;3.03;;;18.20;33.90;;;;;;5054374;28;20115;-58
2022/11/19 10:24:46;;;;;;;3.88;3.17;;;18.20;33.90;;;;;;5054410;28;20070;-59
2022/11/19 10:27:38;;;;;;;3.70;2.83;;;18.20;33.90;;;;;;5036373;28;20098;-60
2022/11/19 10:30:13;;;;;;;3.85;3.20;;;18.20;33.80;;;;;;5037131;28;20033;-60
2022/11/19 10:33:01;;;;;;;4.03;3.00;;;18.20;33.80;;;;;;5054137;28;20108;-57
2022/11/19 10:35:32;;;;;;;4.35;3.03;;;18.20;33.80;;;;;;5053655;28;20037;-59
2022/11/19 10:38:02;;;;;;;3.28;2.85;;;18.20;33.80;;;;;;5054343;28;20131;-57
2022/11/19 10:40:36;;;;;;;3.35;2.95;;;18.20;33.70;;;;;;5036448;28;20432;-58
2022/11/19 10:43:27;;;;;;;5.15;3.28;;;18.20;33.70;;;;;;5036889;28;20344;-58
2022/11/19 10:45:55;;;;;;;3.47;2.55;;;18.20;33.70;;;;;;5054252;28;20079;-56
2022/11/19 10:48:23;;;;;;;3.92;3.28;;;18.20;33.60;;;;;;5054160;28;20025;-58
2022/11/19 10:50:50;;;;;;;3.92;3.10;;;18.20;34.20;;;;;;5036406;28;20029;-59
2022/11/19 10:53:28;;;;;;;4.45;3.25;;;18.20;34.20;;;;;;5036497;28;20039;-57
2022/11/19 10:56:08;;;;;;;3.20;2.60;;;18.20;33.50;;;;;;5036892;28;20144;-58
2022/11/19 10:58:39;;;;;;;3.58;2.88;;;18.30;33.60;;;;;;5054176;28;20033;-59
2022/11/19 11:01:15;;;;;;;3.05;2.33;;;18.30;33.50;;;;;;5054860;28;20179;-59
2022/11/19 11:04:03;;;;;;;3.50;2.60;;;18.30;33.50;;;;;;5057109;28;20059;-58
2022/11/19 11:06:47;;;;;;;4.90;2.92;;;18.20;33.40;;;;;;5057353;28;20033;-59
2022/11/19 11:09:34;;;;;;;2.90;2.38;;;18.20;33.40;;;;;;5057518;28;20021;-58
2022/11/19 11:15:20;;;;;;;2.58;2.13;;;18.30;33.40;;;;;;5057373;28;20025;-60
2022/11/19 11:17:48;;;;;;;4.07;2.88;;;18.20;33.30;;;;;;5056691;28;20045;-58
2022/11/19 11:20:17;;;;;;;4.25;2.90;;;18.30;33.40;;;;;;5057001;28;20415;-60
2022/11/19 11:22:49;;;;;;;2.60;2.25;;;18.30;33.40;;;;;;5039641;28;20036;-58
2022/11/19 11:25:25;;;;;;;3.20;2.65;;;18.30;33.30;;;;;;5057401;28;20124;-59
2022/11/19 11:28:18;;;;;;;3.22;2.58;;;18.20;33.20;;;;;;5039291;28;20040;-60
2022/11/19 11:30:53;;;;;;;2.72;2.40;;;18.30;33.20;;;;;;5054217;28;20117;-59
2022/11/19 11:33:33;;;;;;;2.58;2.38;;;18.30;33.20;;;;;;5039482;28;20040;-59
2022/11/19 11:36:05;;;;;;;2.90;2.33;;;18.30;33.20;;;;;;5057244;28;20120;-60
2022/11/19 11:38:38;;;;;;;2.67;2.13;;;18.20;33.10;;;;;;5057305;28;20044;-57
2022/11/19 11:41:07;;;;;;;4.20;2.35;;;18.30;33.20;;;;;;5056616;28;20036;-55
2022/11/19 11:43:34;;;;;;;2.65;2.15;;;18.30;33.10;;;;;;5056511;28;20433;-60
2022/11/19 11:46:03;;;;;;;2.70;2.20;;;18.30;33.10;;;;;;5057174;28;20106;-57
2022/11/19 11:48:42;;;;;;;2.75;2.28;;;18.30;33.10;;;;;;5039288;28;20121;-56
2022/11/19 11:51:31;;;;;;;2.60;2.25;;;18.30;33.10;;;;;;5056671;28;20035;-56
2022/11/19 11:54:18;;;;;;;3.10;2.45;;;18.30;33.10;;;;;;5056289;28;20063;-60
2022/11/19 11:56:44;;;;;;;2.78;2.38;;;18.30;32.90;;;;;;5056163;28;20116;-59
2022/11/19 11:59:20;;;;;;;2.42;2.22;;;18.30;32.90;;;;;;5056236;28;20048;-59
2022/11/19 12:01:53;;;;;;;3.55;2.38;;;18.30;32.90;;;;;;5039511;28;20051;-60
2022/11/19 12:04:19;;;;;;;3.10;2.70;;;18.30;32.90;;;;;;5038896;28;20037;-59
2022/11/19 12:07:12;;;;;;;2.58;2.00;;;18.30;32.90;;;;;;5056446;28;20033;-57
2022/11/19 12:10:02;;;;;;;2.83;2.20;;;18.30;32.80;;;;;;5056860;28;20033;-59
2022/11/19 12:12:43;;;;;;;2.60;2.10;;;18.30;32.80;;;;;;5038453;28;20458;-60
2022/11/19 12:15:35;;;;;;;3.17;2.72;;;18.30;32.80;;;;;;5038601;28;20044;-59
2022/11/19 12:18:06;;;;;;;3.38;2.53;;;18.30;32.70;;;;;;5056121;28;20087;-59
2022/11/19 12:21:02;;;;;;;3.33;2.10;;;18.30;32.70;;;;;;5056084;28;20120;-57
2022/11/19 12:23:51;;;;;;;2.90;2.13;;;18.30;32.70;;;;;;5055697;28;20051;-60
2022/11/19 12:26:31;;;;;;;3.45;2.42;;;18.30;32.60;;;;;;5021520;28;20064;-59
2022/11/19 12:29:06;;;;;;;2.63;2.13;;;18.30;32.60;;;;;;5038509;28;20360;-59
2022/11/19 12:31:50;;;;;;;2.60;1.98;;;18.30;32.60;;;;;;5055786;28;20029;-58
2022/11/19 12:34:34;;;;;;;2.38;2.03;;;18.30;32.60;;;;;;5055830;28;20040;-59
2022/11/19 12:37:10;;;;;;;2.92;2.20;;;18.30;32.60;;;;;;5056183;28;20112;-57
2022/11/19 12:39:45;;;;;;;2.13;1.85;;;18.30;32.60;;;;;;5055687;28;20044;-58
2022/11/19 12:42:37;;;;;;;3.28;2.00;;;18.30;32.50;;;;;;5056147;28;20036;-59
2022/11/19 12:45:05;;;;;;;2.70;2.00;;;18.30;32.50;;;;;;5037903;28;20041;-60
2022/11/19 12:47:56;;;;;;;1.90;1.70;;;18.30;32.40;;;;;;5038944;28;20041;-59
2022/11/19 12:50:41;;;;;;;2.10;1.67;;;18.30;32.40;;;;;;5055853;28;20124;-60
2022/11/19 12:53:35;;;;;;;2.50;2.03;;;18.30;32.40;;;;;;5055343;28;20067;-60
2022/11/19 12:56:42;;;;;;;2.53;1.90;;;18.30;33.00;;;;;;5055584;28;20127;-60
2022/11/19 12:59:40;;;;;;;2.15;1.77;;;18.30;32.40;;;;;;5055892;28;20063;-60
2022/11/19 13:02:16;;;;;;;1.75;1.58;;;18.30;32.40;;;;;;5055449;28;20037;-58
2022/11/19 13:04:48;;;;;;;2.17;1.90;;;18.30;32.30;;;;;;5037829;28;20048;-58
2022/11/19 13:07:34;;;;;;;2.50;1.83;;;18.30;32.30;;;;;;5055506;28;20040;-59
2022/11/19 13:10:35;;;;;;;2.00;1.60;;;18.30;32.20;;;;;;5055098;28;20517;-57
2022/11/19 13:13:03;;;;;;;2.50;1.80;;;18.30;32.20;;;;;;5037526;28;20124;-58
2022/11/19 13:15:42;;;;;;;3.55;1.73;;;18.30;32.10;;;;;;5055499;28;20035;-60
2022/11/19 13:18:12;;;;;;;2.72;1.85;;;18.30;32.10;;;;;;5055121;28;20064;-60
2022/11/19 13:20:57;;;;;;;2.97;1.80;;;18.30;32.00;;;;;;5054806;28;20120;-59
2022/11/19 13:23:29;;;;;;;2.60;1.88;;;18.30;32.10;;;;;;5055824;28;20044;-57
2022/11/19 13:26:05;;;;;;;1.65;1.45;;;18.30;32.00;;;;;;5055181;28;20044;-57
2022/11/19 13:28:54;;;;;;;2.70;2.22;;;18.30;31.90;;;;;;5055302;28;20040;-59
2022/11/19 13:31:37;;;;;;;2.10;1.40;;;18.30;31.80;;;;;;5054857;28;20039;-61
2022/11/19 13:34:15;;;;;;;1.88;1.60;;;18.30;31.80;;;;;;5055355;28;20029;-59